This is the latest recevied weather packets stored in our database for station/object KC8VEU. If no packets are shown the sender has not sent any weather packets the latest 10 day(s).
| Time | Temp. | Humidity | Pressure | Rain* | Wind** | Luminosity | Snow |
|---|---|---|---|---|---|---|---|
| 1777682116 | 2.78° C | 54% | 1009 hPa | 0 mm | - | - | - |
| 1777672517 | 5.56° C | 47% | 1008.6 hPa | 0 mm | - | - | - |
| 1777671316 | 5° C | 46% | 1008.6 hPa | 0 mm | - | - | - |
| 1777668936 | 6.11° C | 45% | 1008.6 hPa | 0 mm | - | - | - |
| 1777667116 | 5.56° C | 45% | 1008.9 hPa | 0 mm | - | - | - |
| 1777665316 | 5.56° C | 45% | 1008.8 hPa | 0 mm | - | - | - |
| 1777657516 | 5.56° C | 50% | 1009.1 hPa | 0 mm | - | - | - |
| 1777655116 | 4.44° C | 55% | 1009 hPa | 0 mm | - | - | - |
| 1777654536 | 4.44° C | 54% | 1009 hPa | 0 mm | - | - | - |
| 1777652116 | 3.89° C | 54% | 1009 hPa | 0 mm | - | - | - |
| 1777651516 | 4.44° C | 57% | 1009 hPa | 0 mm | - | - | - |
| 1777649116 | 3.89° C | 62% | 1009.1 hPa | 0 mm | - | - | - |
| 1777647337 | 2.78° C | 68% | 1008.7 hPa | 0 mm | - | - | - |
| 1777642536 | 2.22° C | 73% | 1008.4 hPa | 0 mm | - | - | - |
| 1777640116 | 1.11° C | 78% | 1008.3 hPa | 0 mm | - | - | - |
| 1777634716 | -0.56° C | 89% | 1007.7 hPa | 0 mm | - | - | - |
| 1777628716 | -0.56° C | 90% | 1007.6 hPa | 0 mm | - | - | - |
| 1777626616 | -0.56° C | 90% | 1007.5 hPa | 0 mm | - | - | - |
| 1777623616 | -0.56° C | 88% | 1007.4 hPa | 0 mm | - | - | - |
| 1777623016 | -0.56° C | 88% | 1007.3 hPa | 0 mm | - | - | - |
| 1777619416 | 0° C | 86% | 1007.5 hPa | 0 mm | - | - | - |
| 1777617656 | 0° C | 85% | 1007.7 hPa | 0 mm | - | - | - |
| 1777615816 | 0° C | 84% | 1007.8 hPa | 0 mm | - | - | - |
| 1777610416 | 0.56° C | 80% | 1007.6 hPa | 0 mm | - | - | - |
| 1777609816 | 0.56° C | 81% | 1007.6 hPa | 0 mm | - | - | - |
* Rain latest hour (hover to see other rain measurements)
** Current wind speed in m/s (hover to see current wind gust speed)